sensor_id;sensor_type;location;lat;lon;timestamp;P1;durP1;ratioP1;P2;durP2;ratioP2
79122;SDS011;68526;44.600;26.032;2023-07-20T00:00:09;10.15;;;8.27;;
79122;SDS011;68526;44.600;26.032;2023-07-20T00:00:28;11.38;;;8.65;;
79122;SDS011;68526;44.600;26.032;2023-07-20T00:00:44;11.45;;;8.35;;
79122;SDS011;68526;44.600;26.032;2023-07-20T00:01:00;11.83;;;8.53;;
79122;SDS011;68526;44.600;26.032;2023-07-20T00:01:16;12.57;;;8.82;;
79122;SDS011;68526;44.600;26.032;2023-07-20T00:01:33;12.90;;;8.88;;
79122;SDS011;68526;44.600;26.032;2023-07-20T00:01:49;14.13;;;8.52;;
79122;SDS011;68526;44.600;26.032;2023-07-20T00:02:04;12.27;;;8.20;;
79122;SDS011;68526;44.600;26.032;2023-07-20T00:02:22;11.52;;;8.10;;
79122;SDS011;68526;44.600;26.032;2023-07-20T00:02:39;11.60;;;8.35;;
79122;SDS011;68526;44.600;26.032;2023-07-20T00:03:05;11.50;;;8.45;;
79122;SDS011;68526;44.600;26.032;2023-07-20T00:03:26;10.88;;;8.35;;
79122;SDS011;68526;44.600;26.032;2023-07-20T00:03:41;9.77;;;8.30;;
79122;SDS011;68526;44.600;26.032;2023-07-20T00:03:57;11.98;;;8.52;;
79122;SDS011;68526;44.600;26.032;2023-07-20T00:04:13;12.95;;;8.60;;
79122;SDS011;68526;44.600;26.032;2023-07-20T00:04:30;11.52;;;8.35;;
79122;SDS011;68526;44.600;26.032;2023-07-20T00:04:46;10.63;;;8.10;;
79122;SDS011;68526;44.600;26.032;2023-07-20T00:05:02;9.97;;;8.27;;
79122;SDS011;68526;44.600;26.032;2023-07-20T00:05:18;9.75;;;8.65;;
79122;SDS011;68526;44.600;26.032;2023-07-20T00:05:36;11.30;;;8.80;;
79122;SDS011;68526;44.600;26.032;2023-07-20T00:05:51;11.77;;;8.55;;
79122;SDS011;68526;44.600;26.032;2023-07-20T00:06:07;10.37;;;8.10;;
79122;SDS011;68526;44.600;26.032;2023-07-20T00:06:23;12.25;;;8.50;;
79122;SDS011;68526;44.600;26.032;2023-07-20T00:06:42;11.50;;;8.38;;
79122;SDS011;68526;44.600;26.032;2023-07-20T00:06:58;10.95;;;7.90;;
79122;SDS011;68526;44.600;26.032;2023-07-20T00:07:14;10.30;;;8.50;;
79122;SDS011;68526;44.600;26.032;2023-07-20T00:07:30;9.60;;;8.02;;
79122;SDS011;68526;44.600;26.032;2023-07-20T00:07:45;10.23;;;7.40;;
79122;SDS011;68526;44.600;26.032;2023-07-20T00:08:01;10.00;;;7.63;;
79122;SDS011;68526;44.600;26.032;2023-07-20T00:08:17;9.77;;;8.00;;
79122;SDS011;68526;44.600;26.032;2023-07-20T00:08:33;11.00;;;8.10;;
79122;SDS011;68526;44.600;26.032;2023-07-20T00:08:50;11.07;;;7.80;;
79122;SDS011;68526;44.600;26.032;2023-07-20T00:09:06;11.05;;;8.23;;
79122;SDS011;68526;44.600;26.032;2023-07-20T00:09:22;11.53;;;8.80;;
79122;SDS011;68526;44.600;26.032;2023-07-20T00:09:38;10.93;;;8.90;;
79122;SDS011;68526;44.600;26.032;2023-07-20T00:09:53;10.30;;;8.50;;
79122;SDS011;68526;44.600;26.032;2023-07-20T00:10:09;11.77;;;8.43;;
79122;SDS011;68526;44.600;26.032;2023-07-20T00:10:25;12.10;;;8.07;;
79122;SDS011;68526;44.600;26.032;2023-07-20T00:10:42;10.73;;;8.00;;
79122;SDS011;68526;44.600;26.032;2023-07-20T00:10:57;11.43;;;8.65;;
79122;SDS011;68526;44.600;26.032;2023-07-20T00:11:13;11.70;;;8.52;;
79122;SDS011;68526;44.600;26.032;2023-07-20T00:11:29;10.88;;;8.27;;
79122;SDS011;68526;44.600;26.032;2023-07-20T00:11:48;10.73;;;8.25;;
79122;SDS011;68526;44.600;26.032;2023-07-20T00:12:05;10.27;;;8.30;;
79122;SDS011;68526;44.600;26.032;2023-07-20T00:12:21;12.77;;;8.40;;
79122;SDS011;68526;44.600;26.032;2023-07-20T00:12:37;13.27;;;8.73;;
79122;SDS011;68526;44.600;26.032;2023-07-20T00:12:54;11.15;;;8.70;;
79122;SDS011;68526;44.600;26.032;2023-07-20T00:13:10;11.57;;;8.40;;
79122;SDS011;68526;44.600;26.032;2023-07-20T00:13:26;10.88;;;8.05;;
79122;SDS011;68526;44.600;26.032;2023-07-20T00:13:42;12.55;;;8.25;;
79122;SDS011;68526;44.600;26.032;2023-07-20T00:13:58;13.52;;;8.35;;
79122;SDS011;68526;44.600;26.032;2023-07-20T00:14:14;11.63;;;8.27;;
79122;SDS011;68526;44.600;26.032;2023-07-20T00:14:30;11.15;;;8.40;;
79122;SDS011;68526;44.600;26.032;2023-07-20T00:14:47;11.57;;;8.55;;
79122;SDS011;68526;44.600;26.032;2023-07-20T00:15:09;11.33;;;8.70;;
79122;SDS011;68526;44.600;26.032;2023-07-20T00:15:31;11.88;;;8.55;;
79122;SDS011;68526;44.600;26.032;2023-07-20T00:15:47;10.90;;;8.85;;
79122;SDS011;68526;44.600;26.032;2023-07-20T00:16:03;11.13;;;9.32;;
79122;SDS011;68526;44.600;26.032;2023-07-20T00:16:19;11.18;;;9.05;;
79122;SDS011;68526;44.600;26.032;2023-07-20T00:16:37;10.35;;;8.52;;
79122;SDS011;68526;44.600;26.032;2023-07-20T00:16:54;11.35;;;8.70;;
79122;SDS011;68526;44.600;26.032;2023-07-20T00:17:11;13.10;;;9.00;;
79122;SDS011;68526;44.600;26.032;2023-07-20T00:17:26;12.90;;;9.27;;
79122;SDS011;68526;44.600;26.032;2023-07-20T00:17:42;12.90;;;9.07;;
79122;SDS011;68526;44.600;26.032;2023-07-20T00:17:59;13.05;;;8.95;;
79122;SDS011;68526;44.600;26.032;2023-07-20T00:18:15;11.15;;;8.77;;
79122;SDS011;68526;44.600;26.032;2023-07-20T00:18:31;11.33;;;9.00;;
79122;SDS011;68526;44.600;26.032;2023-07-20T00:18:48;11.00;;;8.55;;
79122;SDS011;68526;44.600;26.032;2023-07-20T00:19:03;10.65;;;8.18;;
79122;SDS011;68526;44.600;26.032;2023-07-20T00:19:22;11.45;;;8.23;;
79122;SDS011;68526;44.600;26.032;2023-07-20T00:19:38;9.90;;;8.20;;
79122;SDS011;68526;44.600;26.032;2023-07-20T00:19:54;10.93;;;8.40;;
79122;SDS011;68526;44.600;26.032;2023-07-20T00:20:10;13.63;;;8.57;;
79122;SDS011;68526;44.600;26.032;2023-07-20T00:20:26;11.35;;;8.00;;
79122;SDS011;68526;44.600;26.032;2023-07-20T00:20:43;10.43;;;8.23;;
79122;SDS011;68526;44.600;26.032;2023-07-20T00:20:59;12.53;;;8.73;;
79122;SDS011;68526;44.600;26.032;2023-07-20T00:21:15;12.75;;;9.10;;
79122;SDS011;68526;44.600;26.032;2023-07-20T00:21:30;11.98;;;8.82;;
79122;SDS011;68526;44.600;26.032;2023-07-20T00:21:46;10.85;;;8.38;;
79122;SDS011;68526;44.600;26.032;2023-07-20T00:22:02;10.35;;;8.30;;
79122;SDS011;68526;44.600;26.032;2023-07-20T00:22:19;11.00;;;8.18;;
79122;SDS011;68526;44.600;26.032;2023-07-20T00:22:36;9.65;;;8.23;;
79122;SDS011;68526;44.600;26.032;2023-07-20T00:22:52;10.37;;;8.47;;
79122;SDS011;68526;44.600;26.032;2023-07-20T00:23:10;10.55;;;8.25;;
79122;SDS011;68526;44.600;26.032;2023-07-20T00:23:25;9.88;;;8.30;;
79122;SDS011;68526;44.600;26.032;2023-07-20T00:23:41;9.03;;;8.00;;
79122;SDS011;68526;44.600;26.032;2023-07-20T00:23:57;9.40;;;8.23;;
79122;SDS011;68526;44.600;26.032;2023-07-20T00:24:13;10.20;;;8.48;;
79122;SDS011;68526;44.600;26.032;2023-07-20T00:24:28;11.83;;;8.43;;
79122;SDS011;68526;44.600;26.032;2023-07-20T00:24:44;12.98;;;8.50;;
79122;SDS011;68526;44.600;26.032;2023-07-20T00:25:01;12.48;;;8.63;;
79122;SDS011;68526;44.600;26.032;2023-07-20T00:25:17;10.20;;;8.23;;
79122;SDS011;68526;44.600;26.032;2023-07-20T00:25:34;11.40;;;8.27;;
79122;SDS011;68526;44.600;26.032;2023-07-20T00:25:50;13.88;;;8.88;;
79122;SDS011;68526;44.600;26.032;2023-07-20T00:26:06;12.37;;;8.60;;
79122;SDS011;68526;44.600;26.032;2023-07-20T00:26:21;11.18;;;8.27;;
79122;SDS011;68526;44.600;26.032;2023-07-20T00:26:37;11.93;;;8.20;;
79122;SDS011;68526;44.600;26.032;2023-07-20T00:26:54;10.90;;;8.23;;
79122;SDS011;68526;44.600;26.032;2023-07-20T00:27:10;10.55;;;8.23;;
79122;SDS011;68526;44.600;26.032;2023-07-20T00:27:25;11.68;;;8.05;;
79122;SDS011;68526;44.600;26.032;2023-07-20T00:27:41;12.23;;;8.00;;
79122;SDS011;68526;44.600;26.032;2023-07-20T00:27:57;10.55;;;7.90;;
79122;SDS011;68526;44.600;26.032;2023-07-20T00:28:12;9.75;;;7.90;;
79122;SDS011;68526;44.600;26.032;2023-07-20T00:28:28;11.37;;;7.80;;
79122;SDS011;68526;44.600;26.032;2023-07-20T00:28:45;12.55;;;7.78;;
79122;SDS011;68526;44.600;26.032;2023-07-20T00:29:01;11.90;;;7.80;;
79122;SDS011;68526;44.600;26.032;2023-07-20T00:29:16;11.27;;;8.17;;
79122;SDS011;68526;44.600;26.032;2023-07-20T00:29:33;10.07;;;8.23;;
79122;SDS011;68526;44.600;26.032;2023-07-20T00:29:48;9.57;;;7.85;;
79122;SDS011;68526;44.600;26.032;2023-07-20T00:30:05;10.43;;;7.85;;
79122;SDS011;68526;44.600;26.032;2023-07-20T00:30:21;10.27;;;8.15;;
79122;SDS011;68526;44.600;26.032;2023-07-20T00:30:38;12.00;;;8.23;;
79122;SDS011;68526;44.600;26.032;2023-07-20T00:30:54;12.43;;;8.07;;
79122;SDS011;68526;44.600;26.032;2023-07-20T00:31:09;12.65;;;8.40;;
79122;SDS011;68526;44.600;26.032;2023-07-20T00:31:25;11.33;;;8.13;;
79122;SDS011;68526;44.600;26.032;2023-07-20T00:31:43;10.63;;;8.25;;
79122;SDS011;68526;44.600;26.032;2023-07-20T00:31:59;12.30;;;8.77;;
79122;SDS011;68526;44.600;26.032;2023-07-20T00:32:15;11.75;;;8.55;;
79122;SDS011;68526;44.600;26.032;2023-07-20T00:32:32;11.63;;;8.68;;
79122;SDS011;68526;44.600;26.032;2023-07-20T00:32:47;13.27;;;8.87;;
79122;SDS011;68526;44.600;26.032;2023-07-20T00:33:03;12.38;;;8.70;;
79122;SDS011;68526;44.600;26.032;2023-07-20T00:33:19;10.30;;;8.95;;
79122;SDS011;68526;44.600;26.032;2023-07-20T00:33:34;10.40;;;8.73;;
79122;SDS011;68526;44.600;26.032;2023-07-20T00:33:50;12.32;;;8.43;;
79122;SDS011;68526;44.600;26.032;2023-07-20T00:34:06;13.88;;;9.15;;
79122;SDS011;68526;44.600;26.032;2023-07-20T00:34:23;12.90;;;9.32;;
79122;SDS011;68526;44.600;26.032;2023-07-20T00:34:38;11.88;;;9.13;;
79122;SDS011;68526;44.600;26.032;2023-07-20T00:34:54;12.32;;;9.23;;
79122;SDS011;68526;44.600;26.032;2023-07-20T00:35:10;12.90;;;9.30;;
79122;SDS011;68526;44.600;26.032;2023-07-20T00:35:26;12.30;;;9.38;;
79122;SDS011;68526;44.600;26.032;2023-07-20T00:35:42;13.60;;;9.70;;
79122;SDS011;68526;44.600;26.032;2023-07-20T00:35:59;13.77;;;9.65;;
79122;SDS011;68526;44.600;26.032;2023-07-20T00:36:15;13.63;;;9.68;;
79122;SDS011;68526;44.600;26.032;2023-07-20T00:36:31;13.07;;;9.63;;
79122;SDS011;68526;44.600;26.032;2023-07-20T00:36:46;13.90;;;9.47;;
79122;SDS011;68526;44.600;26.032;2023-07-20T00:37:04;14.93;;;9.48;;
79122;SDS011;68526;44.600;26.032;2023-07-20T00:37:19;13.37;;;9.33;;
79122;SDS011;68526;44.600;26.032;2023-07-20T00:37:35;12.07;;;9.45;;
79122;SDS011;68526;44.600;26.032;2023-07-20T00:37:52;13.77;;;9.73;;
79122;SDS011;68526;44.600;26.032;2023-07-20T00:38:08;14.15;;;9.68;;
79122;SDS011;68526;44.600;26.032;2023-07-20T00:38:24;14.13;;;9.63;;
79122;SDS011;68526;44.600;26.032;2023-07-20T00:38:41;15.07;;;10.13;;
79122;SDS011;68526;44.600;26.032;2023-07-20T00:38:57;14.32;;;10.43;;
79122;SDS011;68526;44.600;26.032;2023-07-20T00:39:13;13.52;;;10.23;;
79122;SDS011;68526;44.600;26.032;2023-07-20T00:39:29;13.17;;;9.80;;
79122;SDS011;68526;44.600;26.032;2023-07-20T00:39:45;14.02;;;9.85;;
79122;SDS011;68526;44.600;26.032;2023-07-20T00:40:02;14.00;;;10.00;;
79122;SDS011;68526;44.600;26.032;2023-07-20T00:40:20;13.80;;;9.80;;
79122;SDS011;68526;44.600;26.032;2023-07-20T00:40:36;15.13;;;9.85;;
79122;SDS011;68526;44.600;26.032;2023-07-20T00:40:52;15.68;;;10.00;;
79122;SDS011;68526;44.600;26.032;2023-07-20T00:41:07;15.20;;;9.90;;
79122;SDS011;68526;44.600;26.032;2023-07-20T00:41:23;13.82;;;9.93;;
79122;SDS011;68526;44.600;26.032;2023-07-20T00:41:39;12.43;;;9.65;;
79122;SDS011;68526;44.600;26.032;2023-07-20T00:41:55;13.13;;;9.77;;
79122;SDS011;68526;44.600;26.032;2023-07-20T00:42:11;12.65;;;10.07;;
79122;SDS011;68526;44.600;26.032;2023-07-20T00:42:27;12.32;;;9.98;;
79122;SDS011;68526;44.600;26.032;2023-07-20T00:42:43;13.88;;;9.77;;
79122;SDS011;68526;44.600;26.032;2023-07-20T00:42:59;13.33;;;9.93;;
79122;SDS011;68526;44.600;26.032;2023-07-20T00:43:14;12.65;;;9.90;;
79122;SDS011;68526;44.600;26.032;2023-07-20T00:43:30;11.63;;;9.60;;
79122;SDS011;68526;44.600;26.032;2023-07-20T00:43:46;13.70;;;9.83;;
79122;SDS011;68526;44.600;26.032;2023-07-20T00:44:02;15.50;;;9.77;;
79122;SDS011;68526;44.600;26.032;2023-07-20T00:44:19;14.45;;;9.55;;
79122;SDS011;68526;44.600;26.032;2023-07-20T00:44:34;13.32;;;9.77;;
79122;SDS011;68526;44.600;26.032;2023-07-20T00:44:50;12.83;;;10.03;;
79122;SDS011;68526;44.600;26.032;2023-07-20T00:45:06;13.90;;;10.15;;
79122;SDS011;68526;44.600;26.032;2023-07-20T00:45:27;12.43;;;9.90;;
79122;SDS011;68526;44.600;26.032;2023-07-20T00:45:43;13.45;;;10.13;;
79122;SDS011;68526;44.600;26.032;2023-07-20T00:46:00;15.10;;;10.23;;
79122;SDS011;68526;44.600;26.032;2023-07-20T00:46:17;13.02;;;9.50;;
79122;SDS011;68526;44.600;26.032;2023-07-20T00:46:34;12.55;;;9.45;;
79122;SDS011;68526;44.600;26.032;2023-07-20T00:46:51;16.42;;;10.27;;
79122;SDS011;68526;44.600;26.032;2023-07-20T00:47:07;17.83;;;10.57;;
79122;SDS011;68526;44.600;26.032;2023-07-20T00:47:23;13.60;;;10.40;;
79122;SDS011;68526;44.600;26.032;2023-07-20T00:47:39;15.95;;;10.70;;
79122;SDS011;68526;44.600;26.032;2023-07-20T00:47:56;14.50;;;10.45;;
79122;SDS011;68526;44.600;26.032;2023-07-20T00:48:12;14.85;;;10.45;;
79122;SDS011;68526;44.600;26.032;2023-07-20T00:48:31;15.68;;;11.07;;
79122;SDS011;68526;44.600;26.032;2023-07-20T00:48:47;13.23;;;11.00;;
79122;SDS011;68526;44.600;26.032;2023-07-20T00:49:02;14.80;;;11.02;;
79122;SDS011;68526;44.600;26.032;2023-07-20T00:49:19;16.50;;;11.18;;
79122;SDS011;68526;44.600;26.032;2023-07-20T00:49:37;16.83;;;10.98;;
79122;SDS011;68526;44.600;26.032;2023-07-20T00:49:54;14.30;;;10.52;;
79122;SDS011;68526;44.600;26.032;2023-07-20T00:50:10;13.32;;;10.68;;
79122;SDS011;68526;44.600;26.032;2023-07-20T00:50:25;14.17;;;11.70;;
79122;SDS011;68526;44.600;26.032;2023-07-20T00:50:41;16.25;;;12.00;;
79122;SDS011;68526;44.600;26.032;2023-07-20T00:50:58;17.08;;;12.13;;
79122;SDS011;68526;44.600;26.032;2023-07-20T00:51:15;17.35;;;12.07;;
79122;SDS011;68526;44.600;26.032;2023-07-20T00:51:31;16.40;;;11.95;;
79122;SDS011;68526;44.600;26.032;2023-07-20T00:51:48;15.63;;;11.68;;
79122;SDS011;68526;44.600;26.032;2023-07-20T00:52:06;15.00;;;11.80;;
79122;SDS011;68526;44.600;26.032;2023-07-20T00:52:22;13.90;;;11.93;;
79122;SDS011;68526;44.600;26.032;2023-07-20T00:52:40;13.90;;;11.70;;
79122;SDS011;68526;44.600;26.032;2023-07-20T00:52:57;18.33;;;12.00;;
79122;SDS011;68526;44.600;26.032;2023-07-20T00:53:13;19.23;;;12.27;;
79122;SDS011;68526;44.600;26.032;2023-07-20T00:53:29;14.00;;;11.82;;
79122;SDS011;68526;44.600;26.032;2023-07-20T00:53:45;14.00;;;11.60;;
79122;SDS011;68526;44.600;26.032;2023-07-20T00:54:02;14.82;;;11.82;;
79122;SDS011;68526;44.600;26.032;2023-07-20T00:54:18;15.88;;;12.10;;
79122;SDS011;68526;44.600;26.032;2023-07-20T00:54:34;15.88;;;12.48;;
79122;SDS011;68526;44.600;26.032;2023-07-20T00:54:50;16.70;;;12.38;;
79122;SDS011;68526;44.600;26.032;2023-07-20T00:55:07;17.90;;;12.57;;
79122;SDS011;68526;44.600;26.032;2023-07-20T00:55:24;16.52;;;12.90;;
79122;SDS011;68526;44.600;26.032;2023-07-20T00:55:40;17.73;;;13.02;;
79122;SDS011;68526;44.600;26.032;2023-07-20T00:55:57;18.73;;;13.30;;
79122;SDS011;68526;44.600;26.032;2023-07-20T00:56:13;16.83;;;13.18;;
79122;SDS011;68526;44.600;26.032;2023-07-20T00:56:28;17.27;;;13.60;;
79122;SDS011;68526;44.600;26.032;2023-07-20T00:56:44;18.20;;;14.07;;
79122;SDS011;68526;44.600;26.032;2023-07-20T00:57:01;18.20;;;13.80;;
79122;SDS011;68526;44.600;26.032;2023-07-20T00:57:17;17.23;;;13.50;;
79122;SDS011;68526;44.600;26.032;2023-07-20T00:57:35;18.25;;;13.93;;
79122;SDS011;68526;44.600;26.032;2023-07-20T00:57:51;19.48;;;13.68;;
79122;SDS011;68526;44.600;26.032;2023-07-20T00:58:06;19.75;;;13.90;;
79122;SDS011;68526;44.600;26.032;2023-07-20T00:58:23;19.58;;;14.43;;
79122;SDS011;68526;44.600;26.032;2023-07-20T00:58:39;19.75;;;14.27;;
79122;SDS011;68526;44.600;26.032;2023-07-20T00:58:55;19.45;;;14.07;;
79122;SDS011;68526;44.600;26.032;2023-07-20T00:59:12;18.20;;;14.48;;
79122;SDS011;68526;44.600;26.032;2023-07-20T00:59:28;17.85;;;14.50;;
79122;SDS011;68526;44.600;26.032;2023-07-20T00:59:44;20.70;;;14.93;;
79122;SDS011;68526;44.600;26.032;2023-07-20T01:00:00;23.30;;;15.18;;
79122;SDS011;68526;44.600;26.032;2023-07-20T01:00:16;19.25;;;14.45;;
79122;SDS011;68526;44.600;26.032;2023-07-20T01:00:32;17.40;;;14.20;;
79122;SDS011;68526;44.600;26.032;2023-07-20T01:00:48;19.90;;;14.45;;
79122;SDS011;68526;44.600;26.032;2023-07-20T01:01:05;20.73;;;14.65;;
79122;SDS011;68526;44.600;26.032;2023-07-20T01:01:21;19.90;;;14.50;;
79122;SDS011;68526;44.600;26.032;2023-07-20T01:01:37;20.60;;;14.30;;
79122;SDS011;68526;44.600;26.032;2023-07-20T01:01:54;20.75;;;14.23;;
79122;SDS011;68526;44.600;26.032;2023-07-20T01:02:10;17.40;;;13.50;;
79122;SDS011;68526;44.600;26.032;2023-07-20T01:02:26;17.38;;;14.13;;
79122;SDS011;68526;44.600;26.032;2023-07-20T01:02:42;18.65;;;14.43;;
79122;SDS011;68526;44.600;26.032;2023-07-20T01:02:57;19.50;;;13.98;;
79122;SDS011;68526;44.600;26.032;2023-07-20T01:03:14;19.02;;;14.20;;
79122;SDS011;68526;44.600;26.032;2023-07-20T01:03:30;18.20;;;14.20;;
79122;SDS011;68526;44.600;26.032;2023-07-20T01:03:46;16.60;;;13.52;;
79122;SDS011;68526;44.600;26.032;2023-07-20T01:04:02;17.95;;;13.93;;
79122;SDS011;68526;44.600;26.032;2023-07-20T01:04:18;18.38;;;14.07;;
79122;SDS011;68526;44.600;26.032;2023-07-20T01:04:35;16.10;;;13.55;;
79122;SDS011;68526;44.600;26.032;2023-07-20T01:04:52;16.63;;;13.68;;
79122;SDS011;68526;44.600;26.032;2023-07-20T01:05:08;17.02;;;13.80;;
79122;SDS011;68526;44.600;26.032;2023-07-20T01:05:26;17.05;;;13.70;;
79122;SDS011;68526;44.600;26.032;2023-07-20T01:05:54;19.38;;;13.85;;
79122;SDS011;68526;44.600;26.032;2023-07-20T01:06:21;18.13;;;14.00;;
79122;SDS011;68526;44.600;26.032;2023-07-20T01:06:47;16.00;;;13.27;;
79122;SDS011;68526;44.600;26.032;2023-07-20T01:07:11;16.75;;;13.60;;
79122;SDS011;68526;44.600;26.032;2023-07-20T01:07:31;18.60;;;13.73;;
79122;SDS011;68526;44.600;26.032;2023-07-20T01:07:52;17.15;;;14.43;;
79122;SDS011;68526;44.600;26.032;2023-07-20T01:08:18;17.13;;;14.00;;
79122;SDS011;68526;44.600;26.032;2023-07-20T01:08:45;18.88;;;13.80;;
79122;SDS011;68526;44.600;26.032;2023-07-20T01:09:11;17.98;;;13.75;;
79122;SDS011;68526;44.600;26.032;2023-07-20T01:09:31;17.25;;;13.25;;
79122;SDS011;68526;44.600;26.032;2023-07-20T01:09:56;18.60;;;13.98;;
79122;SDS011;68526;44.600;26.032;2023-07-20T01:10:21;17.27;;;14.00;;
79122;SDS011;68526;44.600;26.032;2023-07-20T01:10:46;17.33;;;13.63;;
79122;SDS011;68526;44.600;26.032;2023-07-20T01:11:10;16.92;;;13.57;;
79122;SDS011;68526;44.600;26.032;2023-07-20T01:11:43;14.82;;;12.32;;
79122;SDS011;68526;44.600;26.032;2023-07-20T01:12:10;17.33;;;12.48;;
79122;SDS011;68526;44.600;26.032;2023-07-20T01:12:36;16.00;;;13.13;;
79122;SDS011;68526;44.600;26.032;2023-07-20T01:12:57;15.43;;;13.30;;
79122;SDS011;68526;44.600;26.032;2023-07-20T01:13:14;16.50;;;13.57;;
79122;SDS011;68526;44.600;26.032;2023-07-20T01:13:31;17.38;;;13.27;;
79122;SDS011;68526;44.600;26.032;2023-07-20T01:13:48;15.73;;;12.57;;
79122;SDS011;68526;44.600;26.032;2023-07-20T01:14:05;16.02;;;12.80;;
79122;SDS011;68526;44.600;26.032;2023-07-20T01:14:22;17.63;;;13.45;;
79122;SDS011;68526;44.600;26.032;2023-07-20T01:14:39;19.60;;;13.77;;
79122;SDS011;68526;44.600;26.032;2023-07-20T01:14:55;17.93;;;13.10;;
79122;SDS011;68526;44.600;26.032;2023-07-20T01:15:12;16.33;;;12.90;;
79122;SDS011;68526;44.600;26.032;2023-07-20T01:15:28;15.88;;;12.57;;
79122;SDS011;68526;44.600;26.032;2023-07-20T01:15:48;17.67;;;12.77;;
79122;SDS011;68526;44.600;26.032;2023-07-20T01:16:05;16.27;;;13.23;;
79122;SDS011;68526;44.600;26.032;2023-07-20T01:16:22;16.27;;;13.35;;
79122;SDS011;68526;44.600;26.032;2023-07-20T01:16:37;16.00;;;13.17;;
79122;SDS011;68526;44.600;26.032;2023-07-20T01:16:55;14.35;;;12.68;;
79122;SDS011;68526;44.600;26.032;2023-07-20T01:17:11;15.70;;;12.00;;
79122;SDS011;68526;44.600;26.032;2023-07-20T01:17:27;16.20;;;12.18;;
79122;SDS011;68526;44.600;26.032;2023-07-20T01:17:43;16.37;;;12.43;;
79122;SDS011;68526;44.600;26.032;2023-07-20T01:18:00;15.50;;;12.48;;
79122;SDS011;68526;44.600;26.032;2023-07-20T01:18:16;15.93;;;12.77;;
79122;SDS011;68526;44.600;26.032;2023-07-20T01:18:33;18.38;;;12.95;;
79122;SDS011;68526;44.600;26.032;2023-07-20T01:18:49;17.15;;;12.80;;
79122;SDS011;68526;44.600;26.032;2023-07-20T01:19:04;16.17;;;12.25;;
79122;SDS011;68526;44.600;26.032;2023-07-20T01:19:20;15.43;;;12.13;;
79122;SDS011;68526;44.600;26.032;2023-07-20T01:19:36;18.40;;;12.07;;
79122;SDS011;68526;44.600;26.032;2023-07-20T01:19:52;18.08;;;12.10;;
79122;SDS011;68526;44.600;26.032;2023-07-20T01:20:09;16.13;;;12.93;;
79122;SDS011;68526;44.600;26.032;2023-07-20T01:20:28;18.15;;;12.75;;
79122;SDS011;68526;44.600;26.032;2023-07-20T01:20:47;16.17;;;12.30;;
79122;SDS011;68526;44.600;26.032;2023-07-20T01:21:05;14.48;;;12.48;;
79122;SDS011;68526;44.600;26.032;2023-07-20T01:21:28;12.93;;;11.63;;
79122;SDS011;68526;44.600;26.032;2023-07-20T01:21:51;14.30;;;12.15;;
79122;SDS011;68526;44.600;26.032;2023-07-20T01:22:17;15.13;;;11.88;;
79122;SDS011;68526;44.600;26.032;2023-07-20T01:23:49;17.25;;;12.07;;
79122;SDS011;68526;44.600;26.032;2023-07-20T01:24:45;16.23;;;11.63;;
79122;SDS011;68526;44.600;26.032;2023-07-20T01:25:18;13.38;;;11.75;;
79122;SDS011;68526;44.600;26.032;2023-07-20T01:25:53;14.05;;;10.88;;
79122;SDS011;68526;44.600;26.032;2023-07-20T01:27:11;15.32;;;10.63;;
79122;SDS011;68526;44.600;26.032;2023-07-20T01:27:49;14.60;;;10.75;;
79122;SDS011;68526;44.600;26.032;2023-07-20T01:28:31;14.82;;;10.98;;
79122;SDS011;68526;44.600;26.032;2023-07-20T01:29:07;12.57;;;10.73;;
79122;SDS011;68526;44.600;26.032;2023-07-20T01:29:37;15.48;;;10.70;;
79122;SDS011;68526;44.600;26.032;2023-07-20T01:30:22;15.63;;;11.40;;
79122;SDS011;68526;44.600;26.032;2023-07-20T01:30:51;13.93;;;10.90;;
79122;SDS011;68526;44.600;26.032;2023-07-20T01:31:19;13.75;;;11.00;;
79122;SDS011;68526;44.600;26.032;2023-07-20T01:31:38;13.70;;;10.45;;
79122;SDS011;68526;44.600;26.032;2023-07-20T01:31:56;13.38;;;10.77;;
79122;SDS011;68526;44.600;26.032;2023-07-20T01:32:13;13.40;;;10.55;;
79122;SDS011;68526;44.600;26.032;2023-07-20T01:32:32;12.80;;;10.20;;
79122;SDS011;68526;44.600;26.032;2023-07-20T01:32:50;13.63;;;10.20;;
79122;SDS011;68526;44.600;26.032;2023-07-20T01:33:11;12.88;;;10.23;;
79122;SDS011;68526;44.600;26.032;2023-07-20T01:33:32;13.32;;;10.27;;
79122;SDS011;68526;44.600;26.032;2023-07-20T01:33:50;15.07;;;10.35;;
79122;SDS011;68526;44.600;26.032;2023-07-20T01:34:07;14.57;;;9.95;;
79122;SDS011;68526;44.600;26.032;2023-07-20T01:34:25;13.13;;;10.27;;
79122;SDS011;68526;44.600;26.032;2023-07-20T01:34:42;13.35;;;10.63;;
79122;SDS011;68526;44.600;26.032;2023-07-20T01:35:00;12.50;;;10.52;;
79122;SDS011;68526;44.600;26.032;2023-07-20T01:35:17;12.30;;;9.82;;
79122;SDS011;68526;44.600;26.032;2023-07-20T01:35:36;12.45;;;9.77;;
79122;SDS011;68526;44.600;26.032;2023-07-20T01:35:54;12.10;;;9.88;;
79122;SDS011;68526;44.600;26.032;2023-07-20T01:36:13;13.57;;;10.77;;
79122;SDS011;68526;44.600;26.032;2023-07-20T01:36:33;15.30;;;10.65;;
79122;SDS011;68526;44.600;26.032;2023-07-20T01:36:52;12.45;;;10.25;;
79122;SDS011;68526;44.600;26.032;2023-07-20T01:37:11;12.05;;;10.27;;
79122;SDS011;68526;44.600;26.032;2023-07-20T01:37:27;13.35;;;10.27;;
79122;SDS011;68526;44.600;26.032;2023-07-20T01:37:45;14.48;;;10.40;;
79122;SDS011;68526;44.600;26.032;2023-07-20T01:38:02;12.52;;;10.05;;
79122;SDS011;68526;44.600;26.032;2023-07-20T01:38:19;11.57;;;10.18;;
79122;SDS011;68526;44.600;26.032;2023-07-20T01:38:36;11.93;;;10.10;;
79122;SDS011;68526;44.600;26.032;2023-07-20T01:38:52;13.68;;;10.07;;
79122;SDS011;68526;44.600;26.032;2023-07-20T01:39:09;14.45;;;10.40;;
79122;SDS011;68526;44.600;26.032;2023-07-20T01:39:27;13.27;;;10.82;;
79122;SDS011;68526;44.600;26.032;2023-07-20T01:39:43;12.13;;;10.70;;
79122;SDS011;68526;44.600;26.032;2023-07-20T01:39:59;11.70;;;10.45;;
79122;SDS011;68526;44.600;26.032;2023-07-20T01:40:16;13.00;;;10.70;;
79122;SDS011;68526;44.600;26.032;2023-07-20T01:40:33;13.73;;;10.32;;
79122;SDS011;68526;44.600;26.032;2023-07-20T01:40:50;12.13;;;10.40;;
79122;SDS011;68526;44.600;26.032;2023-07-20T01:41:06;12.55;;;10.50;;
79122;SDS011;68526;44.600;26.032;2023-07-20T01:41:24;12.93;;;10.02;;
79122;SDS011;68526;44.600;26.032;2023-07-20T01:41:40;14.43;;;9.75;;
79122;SDS011;68526;44.600;26.032;2023-07-20T01:41:57;13.75;;;10.10;;
79122;SDS011;68526;44.600;26.032;2023-07-20T01:42:13;12.88;;;10.13;;
79122;SDS011;68526;44.600;26.032;2023-07-20T01:42:29;12.82;;;10.23;;
79122;SDS011;68526;44.600;26.032;2023-07-20T01:42:45;14.23;;;10.80;;
79122;SDS011;68526;44.600;26.032;2023-07-20T01:43:01;17.50;;;10.68;;
79122;SDS011;68526;44.600;26.032;2023-07-20T01:43:18;15.07;;;10.23;;
79122;SDS011;68526;44.600;26.032;2023-07-20T01:43:34;11.68;;;10.48;;
79122;SDS011;68526;44.600;26.032;2023-07-20T01:43:50;13.20;;;10.57;;
79122;SDS011;68526;44.600;26.032;2023-07-20T01:44:06;13.97;;;10.37;;
79122;SDS011;68526;44.600;26.032;2023-07-20T01:44:23;13.35;;;10.20;;
79122;SDS011;68526;44.600;26.032;2023-07-20T01:44:39;13.07;;;9.90;;
79122;SDS011;68526;44.600;26.032;2023-07-20T01:44:55;12.27;;;9.45;;